Denver, Colorado
Current Conditions -  °F | °C
As of 4:58 AM on Friday 19 Dec 2014 (Local Time) from KBKF Reporting Station
Scattered Clouds Scattered Clouds  
Wind Chill: -9°   Ceiling: Unl
Heat Index: -5°   Visibility: 10mi
Dew Point: -6°   Wind: 6mph
Humidity: 93%   Direction: 220°SW
Pressure: 30.05"   Gusts: NA
Location:  39.74°N, 104.99°W
Report Text: KBKF 191158Z 22005KT 10SM FEW070 SCT220 M05/M06 A3005 RMK AO2A SLP205 T10531063 11017 21062 55002
Loading
Personal Weather Stations






























Interactive Weather Map New forecast layout! Learn more

10-Day Weather Forecast

Advertisements
Track Severe Weather on mobile